createdAt,value
2023-03-26T00:01:46.756Z,99946.13
2023-03-26T00:04:14.567Z,99940.47
2023-03-26T00:06:42.386Z,99939.34
2023-03-26T00:09:13.184Z,99932.13
2023-03-26T00:11:42.668Z,99933.56
2023-03-26T00:14:13.854Z,99942.00
2023-03-26T00:16:43.013Z,99943.09
2023-03-26T00:19:11.301Z,99943.59
2023-03-26T00:21:39.070Z,99940.13
2023-03-26T00:24:09.478Z,99933.94
2023-03-26T00:26:38.922Z,99940.22
2023-03-26T00:29:09.804Z,99942.19
2023-03-26T00:31:39.818Z,99945.78
2023-03-26T00:34:08.462Z,99945.94
2023-03-26T00:36:37.234Z,99948.28
2023-03-26T00:39:06.156Z,99949.81
2023-03-26T00:41:37.039Z,99949.16
2023-03-26T00:44:05.092Z,99938.16
2023-03-26T00:46:34.237Z,99948.59
2023-03-26T00:49:03.783Z,99936.09
2023-03-26T00:51:31.947Z,99941.66
2023-03-26T00:53:59.714Z,99945.41
2023-03-26T00:56:27.456Z,99949.53
2023-03-26T00:58:55.571Z,99945.22
2023-03-26T01:01:27.710Z,99942.13
2023-03-26T01:04:07.441Z,99942.97
2023-03-26T01:06:38.733Z,99941.81
2023-03-26T01:09:14.103Z,99931.50
2023-03-26T01:11:41.953Z,99927.53
2023-03-26T01:14:13.188Z,99925.09
2023-03-26T01:16:45.045Z,99921.91
2023-03-26T01:19:17.950Z,99909.69
2023-03-26T01:21:47.338Z,99909.34
2023-03-26T01:24:16.445Z,99914.97
2023-03-26T01:27:07.852Z,99904.53
2023-03-26T01:29:42.373Z,99893.38
2023-03-26T01:32:20.702Z,99889.72
2023-03-26T01:34:57.327Z,99898.63
2023-03-26T01:37:30.494Z,99889.06
2023-03-26T01:40:07.126Z,99888.78
2023-03-26T01:42:37.999Z,99890.38
2023-03-26T01:45:10.495Z,99882.09
2023-03-26T01:47:39.319Z,99887.94
2023-03-26T01:50:08.655Z,99883.69
2023-03-26T01:52:36.546Z,99887.19
2023-03-26T01:55:06.639Z,99886.03
2023-03-26T01:57:38.008Z,99884.34
2023-03-26T02:00:14.216Z,99891.09
2023-03-26T02:02:49.949Z,99883.03
2023-03-26T02:05:22.149Z,99882.47
2023-03-26T02:07:53.834Z,99878.53
2023-03-26T02:10:28.578Z,99874.41
2023-03-26T02:12:56.499Z,99861.34
2023-03-26T02:15:24.572Z,99867.44
2023-03-26T02:17:53.340Z,99878.16
2023-03-26T02:20:22.072Z,99875.91
2023-03-26T02:22:49.791Z,99869.50
2023-03-26T02:25:19.394Z,99870.34
2023-03-26T02:27:50.303Z,99858.34
2023-03-26T02:30:20.126Z,99862.94
2023-03-26T02:32:47.911Z,99865.94
2023-03-26T02:35:15.774Z,99863.88
2023-03-26T02:37:46.843Z,99853.63
2023-03-26T02:40:14.790Z,99846.34
2023-03-26T02:42:42.485Z,99832.84
2023-03-26T02:45:11.620Z,99835.00
2023-03-26T02:47:39.375Z,99834.69
2023-03-26T02:50:09.021Z,99827.06
2023-03-26T02:52:37.461Z,99837.59
2023-03-26T02:55:05.360Z,99835.09
2023-03-26T02:57:33.086Z,99836.31
2023-03-26T03:00:02.356Z,99833.22
2023-03-26T03:02:31.468Z,99832.19
2023-03-26T03:05:01.563Z,99826.56
2023-03-26T03:07:30.033Z,99815.69
2023-03-26T03:10:03.298Z,99823.19
2023-03-26T03:12:31.015Z,99816.38
2023-03-26T03:14:58.716Z,99813.00
2023-03-26T03:17:26.672Z,99813.41
2023-03-26T03:19:55.763Z,99817.84
2023-03-26T03:22:23.445Z,99812.94
2023-03-26T03:24:52.036Z,99808.53
2023-03-26T03:27:20.361Z,99802.53
2023-03-26T03:29:48.104Z,99809.47
2023-03-26T03:32:15.788Z,99800.75
2023-03-26T03:34:43.434Z,99796.63
2023-03-26T03:37:12.728Z,99802.91
2023-03-26T03:39:40.562Z,99793.63
2023-03-26T03:42:08.290Z,99800.94
2023-03-26T03:44:36.161Z,99801.69
2023-03-26T03:47:03.922Z,99807.41
2023-03-26T03:49:31.642Z,99806.16
2023-03-26T03:51:59.386Z,99800.06
2023-03-26T03:54:29.340Z,99795.56
2023-03-26T03:56:57.432Z,99801.00
2023-03-26T03:59:25.239Z,99791.25
2023-03-26T04:01:52.906Z,99795.94
2023-03-26T04:04:21.985Z,99795.38
2023-03-26T04:06:49.796Z,99786.09
2023-03-26T04:09:17.542Z,99782.00
2023-03-26T04:11:46.549Z,99782.63
2023-03-26T04:14:14.221Z,99767.53
2023-03-26T04:16:41.951Z,99779.63
2023-03-26T04:19:09.658Z,99775.78
2023-03-26T04:21:37.879Z,99773.78
2023-03-26T04:24:07.192Z,99770.78
2023-03-26T04:26:35.494Z,99766.72
2023-03-26T04:29:06.512Z,99770.06
2023-03-26T04:31:36.182Z,99768.41
2023-03-26T04:34:07.777Z,99773.44
2023-03-26T04:36:35.537Z,99776.44
2023-03-26T04:39:05.238Z,99761.31
2023-03-26T04:41:33.290Z,99764.16
2023-03-26T04:44:02.020Z,99772.91
2023-03-26T04:46:33.653Z,99768.13
2023-03-26T04:49:02.232Z,99774.34
2023-03-26T04:51:38.380Z,99763.16
2023-03-26T04:54:08.161Z,99768.41
2023-03-26T04:56:43.272Z,99770.97
2023-03-26T04:59:14.901Z,99775.69
2023-03-26T05:01:45.814Z,99772.31
2023-03-26T05:04:14.090Z,99767.34
2023-03-26T05:06:42.924Z,99763.22
2023-03-26T05:09:11.172Z,99766.22
2023-03-26T05:11:38.919Z,99764.81
2023-03-26T05:14:06.747Z,99757.50
2023-03-26T05:16:34.730Z,99765.00
2023-03-26T05:19:03.871Z,99763.84
2023-03-26T05:21:31.531Z,99762.72
2023-03-26T05:23:59.410Z,99751.81
2023-03-26T05:26:27.223Z,99752.00
2023-03-26T05:28:54.943Z,99748.53
2023-03-26T05:31:22.819Z,99750.03
2023-03-26T05:33:51.592Z,99753.84
2023-03-26T05:36:20.856Z,99744.84
2023-03-26T05:38:49.797Z,99750.72
2023-03-26T05:41:18.106Z,99743.28
2023-03-26T05:43:47.199Z,99734.81
2023-03-26T05:46:15.529Z,99728.97
2023-03-26T05:48:43.268Z,99716.88
2023-03-26T05:51:12.282Z,99719.97
2023-03-26T05:53:41.345Z,99728.50
2023-03-26T05:56:09.743Z,99730.94
2023-03-26T05:58:37.975Z,99724.84
2023-03-26T06:01:08.439Z,99729.91
2023-03-26T06:03:38.208Z,99726.09
2023-03-26T06:06:08.402Z,99735.16
2023-03-26T06:08:36.082Z,99722.97
2023-03-26T06:11:08.064Z,99730.09
2023-03-26T06:13:36.079Z,99725.63
2023-03-26T06:16:03.851Z,99716.34
2023-03-26T06:18:31.571Z,99709.88
2023-03-26T06:21:00.197Z,99720.47
2023-03-26T06:23:27.910Z,99716.38
2023-03-26T06:25:56.180Z,99715.13
2023-03-26T06:28:25.374Z,99718.56
2023-03-26T06:30:53.744Z,99725.13
2023-03-26T06:33:23.470Z,99701.50
2023-03-26T06:35:52.306Z,99703.41
2023-03-26T06:38:20.076Z,99694.31
2023-03-26T06:40:47.752Z,99689.28
2023-03-26T06:43:15.404Z,99688.13
2023-03-26T06:45:44.435Z,99693.34
2023-03-26T06:48:12.109Z,99695.13
2023-03-26T06:50:39.813Z,99702.69
2023-03-26T06:53:07.520Z,99710.97
2023-03-26T06:55:35.211Z,99701.44
2023-03-26T06:58:02.876Z,99708.00
2023-03-26T07:00:30.596Z,99704.41
2023-03-26T07:02:59.813Z,99711.03
2023-03-26T07:05:27.490Z,99692.75
2023-03-26T07:07:55.352Z,99700.50
2023-03-26T07:10:23.044Z,99691.44
2023-03-26T07:12:50.721Z,99695.63
2023-03-26T07:15:18.454Z,99676.41
2023-03-26T07:17:46.215Z,99674.28
2023-03-26T07:20:15.413Z,99690.19
2023-03-26T07:22:43.622Z,99693.13
2023-03-26T07:25:13.032Z,99687.94
2023-03-26T07:27:48.296Z,99676.06
2023-03-26T07:30:18.401Z,99674.28
2023-03-26T07:32:51.167Z,99679.66
2023-03-26T07:35:23.573Z,99674.38
2023-03-26T07:38:01.780Z,99692.31
2023-03-26T07:40:41.332Z,99677.16
2023-03-26T07:43:15.775Z,99664.88
2023-03-26T07:45:44.865Z,99655.50
2023-03-26T07:48:18.099Z,99660.94
2023-03-26T07:50:48.465Z,99659.19
2023-03-26T07:53:16.578Z,99655.00
2023-03-26T07:55:52.116Z,99657.00
2023-03-26T07:58:34.952Z,99657.88
2023-03-26T08:01:06.194Z,99653.44
2023-03-26T08:03:47.322Z,99659.84
2023-03-26T08:06:20.456Z,99644.84
2023-03-26T08:08:55.113Z,99649.72
2023-03-26T08:11:32.896Z,99647.59
2023-03-26T08:14:15.340Z,99669.34
2023-03-26T08:16:47.862Z,99670.09
2023-03-26T08:19:29.809Z,99668.31
2023-03-26T08:22:02.134Z,99651.25
2023-03-26T08:24:37.009Z,99665.66
2023-03-26T08:27:13.430Z,99662.00
2023-03-26T08:29:45.275Z,99665.38
2023-03-26T08:32:16.009Z,99653.66
2023-03-26T08:34:43.742Z,99654.16
2023-03-26T08:37:12.835Z,99655.25
2023-03-26T08:39:42.456Z,99657.88
2023-03-26T08:42:45.982Z,99660.28
2023-03-26T08:45:41.491Z,99664.38
2023-03-26T08:48:44.796Z,99645.97
2023-03-26T08:51:40.603Z,99636.09
2023-03-26T08:54:40.775Z,99656.19
2023-03-26T08:57:34.478Z,99665.53
2023-03-26T09:00:17.097Z,99651.28
2023-03-26T09:03:01.473Z,99670.78
2023-03-26T09:06:01.219Z,99664.47
2023-03-26T09:09:00.796Z,99669.09
2023-03-26T09:12:28.287Z,99648.19
2023-03-26T09:15:31.921Z,99657.19
2023-03-26T09:18:43.960Z,99648.41
2023-03-26T09:21:28.609Z,99662.97
2023-03-26T09:24:25.479Z,99650.53
2023-03-26T09:27:01.659Z,99649.59
2023-03-26T09:29:56.186Z,99658.09
2023-03-26T09:32:58.188Z,99647.66
2023-03-26T09:35:53.741Z,99637.34
2023-03-26T09:38:38.443Z,99636.97
2023-03-26T09:41:12.074Z,99650.50
2023-03-26T09:44:30.376Z,99645.47
2023-03-26T09:47:12.605Z,99638.66
2023-03-26T09:49:47.930Z,99640.41
2023-03-26T09:52:37.856Z,99644.00
2023-03-26T09:55:22.762Z,99641.28
2023-03-26T09:58:30.345Z,99654.56
2023-03-26T10:01:01.022Z,99670.16
2023-03-26T10:03:36.035Z,99661.31
2023-03-26T10:06:25.823Z,99664.06
2023-03-26T10:09:10.434Z,99662.03
2023-03-26T10:12:04.527Z,99656.03
2023-03-26T10:14:36.538Z,99673.00
2023-03-26T10:17:12.742Z,99678.13
2023-03-26T10:19:49.677Z,99667.84
2023-03-26T10:22:32.736Z,99662.03
2023-03-26T10:25:14.132Z,99672.06
2023-03-26T10:27:49.280Z,99673.53
2023-03-26T10:30:30.472Z,99673.53
2023-03-26T10:33:03.167Z,99657.25
2023-03-26T10:35:41.659Z,99647.22
2023-03-26T10:38:19.967Z,99666.94
2023-03-26T10:40:59.087Z,99664.19
2023-03-26T10:43:54.634Z,99671.53
2023-03-26T10:46:48.466Z,99674.88
2023-03-26T10:49:36.179Z,99657.84
2023-03-26T10:52:05.117Z,99671.97
2023-03-26T10:54:43.738Z,99676.09
2023-03-26T10:57:21.319Z,99699.81
2023-03-26T10:59:49.021Z,99678.34
2023-03-26T11:02:30.523Z,99664.69
2023-03-26T11:05:10.131Z,99670.94
2023-03-26T11:07:41.573Z,99683.13
2023-03-26T11:10:14.909Z,99680.47
2023-03-26T11:12:46.122Z,99684.66
2023-03-26T11:15:21.773Z,99677.72
2023-03-26T11:17:58.355Z,99669.84
2023-03-26T11:20:33.848Z,99699.41
2023-03-26T11:23:22.852Z,99674.34
2023-03-26T11:26:12.071Z,99687.44
2023-03-26T11:29:31.135Z,99673.09
2023-03-26T11:32:04.901Z,99692.66
2023-03-26T11:34:37.045Z,99671.63
2023-03-26T11:37:08.049Z,99673.25
2023-03-26T11:39:42.838Z,99690.34
2023-03-26T11:42:14.333Z,99678.16
2023-03-26T11:44:45.515Z,99671.22
2023-03-26T11:47:17.507Z,99693.25
2023-03-26T11:49:45.800Z,99685.88
2023-03-26T11:52:15.655Z,99671.41
2023-03-26T11:54:43.458Z,99683.84
2023-03-26T11:57:17.275Z,99674.47
2023-03-26T11:59:56.576Z,99680.00
2023-03-26T12:02:32.288Z,99694.16
2023-03-26T12:05:19.332Z,99679.22
2023-03-26T12:07:51.207Z,99679.66
2023-03-26T12:10:25.062Z,99693.28
2023-03-26T12:12:56.340Z,99669.94
2023-03-26T12:15:24.149Z,99695.19
2023-03-26T12:17:56.097Z,99672.69
2023-03-26T12:20:35.898Z,99672.97
2023-03-26T12:23:04.994Z,99678.72
2023-03-26T12:25:34.040Z,99679.81
2023-03-26T12:28:05.019Z,99687.81
2023-03-26T12:30:34.800Z,99683.25
2023-03-26T12:33:05.536Z,99677.00
2023-03-26T12:35:34.814Z,99666.06
2023-03-26T12:38:24.183Z,99687.53
2023-03-26T12:41:06.663Z,99692.09
2023-03-26T12:44:48.826Z,99682.88
2023-03-26T12:47:58.451Z,99693.03
2023-03-26T12:49:19.127Z,99705.84
2023-03-26T12:51:49.973Z,99712.28
2023-03-26T12:54:25.935Z,99696.59
2023-03-26T12:57:12.417Z,99695.66
2023-03-26T12:59:52.782Z,99693.13
2023-03-26T13:02:44.892Z,99700.69
2023-03-26T13:05:28.397Z,99696.88
2023-03-26T13:08:05.280Z,99698.94
2023-03-26T13:10:43.089Z,99699.97
2023-03-26T13:13:37.500Z,99704.03
2023-03-26T13:16:11.212Z,99696.97
2023-03-26T13:18:45.430Z,99693.22
2023-03-26T13:21:19.271Z,99699.09
2023-03-26T13:23:51.443Z,99703.09
2023-03-26T13:26:29.890Z,99725.78
2023-03-26T13:29:02.612Z,99701.13
2023-03-26T13:31:35.011Z,99694.13
2023-03-26T13:34:11.243Z,99704.34
2023-03-26T13:36:46.701Z,99712.31
2023-03-26T13:39:28.803Z,99710.78
2023-03-26T13:42:22.562Z,99709.09
2023-03-26T13:45:05.125Z,99711.25
2023-03-26T13:47:37.780Z,99710.41
2023-03-26T13:50:09.866Z,99704.34
2023-03-26T13:52:42.716Z,99727.41
2023-03-26T13:55:21.219Z,99713.66
2023-03-26T13:57:53.474Z,99695.47
2023-03-26T14:00:26.275Z,99719.34
2023-03-26T14:02:58.152Z,99716.56
2023-03-26T14:05:29.099Z,99717.66
2023-03-26T14:08:01.716Z,99724.16
2023-03-26T14:10:34.090Z,99737.31
2023-03-26T14:13:04.279Z,99717.09
2023-03-26T14:15:34.091Z,99729.66
2023-03-26T14:18:08.184Z,99724.66
2023-03-26T14:20:59.526Z,99737.84
2023-03-26T14:23:39.144Z,99748.69
2023-03-26T14:26:15.780Z,99729.34
2023-03-26T14:29:10.168Z,99745.72
2023-03-26T14:31:40.206Z,99737.44
2023-03-26T14:34:25.798Z,99744.31
2023-03-26T14:37:10.679Z,99752.59
2023-03-26T14:40:14.621Z,99767.38
2023-03-26T14:42:44.124Z,99750.50
2023-03-26T14:45:36.435Z,99759.72
2023-03-26T14:48:39.005Z,99771.84
2023-03-26T14:51:16.537Z,99760.59
2023-03-26T14:53:45.893Z,99773.94
2023-03-26T14:56:38.509Z,99759.69
2023-03-26T14:59:41.721Z,99746.97
2023-03-26T15:02:51.573Z,99778.09
2023-03-26T15:05:41.905Z,99772.50
2023-03-26T15:08:36.091Z,99773.25
2023-03-26T15:11:18.527Z,99787.34
2023-03-26T15:13:55.173Z,99783.19
2023-03-26T15:16:42.860Z,99791.16
2023-03-26T15:19:44.052Z,99774.66
2023-03-26T15:22:32.166Z,99783.56
2023-03-26T15:25:34.160Z,99779.03
2023-03-26T15:28:39.791Z,99786.00
2023-03-26T15:31:18.612Z,99793.50
2023-03-26T15:34:01.780Z,99800.47
2023-03-26T15:37:05.196Z,99799.22
2023-03-26T15:39:58.582Z,99801.56
2023-03-26T15:42:32.658Z,99827.47
2023-03-26T15:45:16.685Z,99799.69
2023-03-26T15:47:52.383Z,99818.66
2023-03-26T15:50:30.711Z,99821.13
2023-03-26T15:53:07.662Z,99821.25
2023-03-26T15:55:42.129Z,99829.69
2023-03-26T15:58:16.986Z,99833.03
2023-03-26T16:00:56.234Z,99840.94
2023-03-26T16:03:31.895Z,99835.72
2023-03-26T16:06:21.870Z,99831.41
2023-03-26T16:08:54.943Z,99843.25
2023-03-26T16:11:44.283Z,99836.97
2023-03-26T16:14:20.091Z,99844.63
2023-03-26T16:16:57.572Z,99851.75
2023-03-26T16:19:41.143Z,99856.41
2023-03-26T16:22:14.611Z,99864.25
2023-03-26T16:24:46.526Z,99880.66
2023-03-26T16:27:33.540Z,99874.56
2023-03-26T16:30:19.485Z,99879.47
2023-03-26T16:32:49.327Z,99884.38
2023-03-26T16:35:58.684Z,99895.50
2023-03-26T16:38:27.342Z,99900.13
2023-03-26T16:41:00.554Z,99900.22
2023-03-26T16:43:57.096Z,99894.28
2023-03-26T16:46:35.612Z,99904.78
2023-03-26T16:49:11.558Z,99910.69
2023-03-26T16:51:54.581Z,99924.06
2023-03-26T16:54:26.981Z,99924.75
2023-03-26T16:57:01.797Z,99909.13
2023-03-26T17:00:06.334Z,99935.09
2023-03-26T17:02:47.989Z,99929.22
2023-03-26T17:05:21.096Z,99938.69
2023-03-26T17:07:53.973Z,99958.44
2023-03-26T17:10:30.853Z,99952.31
2023-03-26T17:13:04.611Z,99966.38
2023-03-26T17:15:37.536Z,99971.78
2023-03-26T17:18:26.348Z,99959.16
2023-03-26T17:21:01.096Z,99971.75
2023-03-26T17:23:39.057Z,99982.94
2023-03-26T17:26:12.534Z,99984.75
2023-03-26T17:28:55.280Z,99982.19
2023-03-26T17:31:28.441Z,99981.56
2023-03-26T17:34:33.418Z,100007.91
2023-03-26T17:37:02.059Z,100014.03
2023-03-26T17:40:12.435Z,100018.25
2023-03-26T17:42:40.385Z,100012.66
2023-03-26T17:45:09.809Z,100021.53
2023-03-26T17:47:39.863Z,100025.22
2023-03-26T17:50:16.198Z,100037.44
2023-03-26T17:52:56.756Z,100039.06
2023-03-26T17:55:31.510Z,100048.94
2023-03-26T17:58:00.835Z,100048.16
2023-03-26T18:00:31.227Z,100079.50
2023-03-26T18:03:02.283Z,100059.09
2023-03-26T18:05:32.217Z,100058.81
2023-03-26T18:08:16.086Z,100071.84
2023-03-26T18:11:08.949Z,100077.94
2023-03-26T18:13:47.978Z,100075.94
2023-03-26T18:16:16.798Z,100091.41
2023-03-26T18:18:50.134Z,100097.06
2023-03-26T18:21:24.065Z,100089.41
2023-03-26T18:23:52.424Z,100113.38
2023-03-26T18:26:23.133Z,100095.44
2023-03-26T18:28:52.895Z,100122.00
2023-03-26T18:31:24.109Z,100116.28
2023-03-26T18:33:55.660Z,100128.47
2023-03-26T18:36:25.908Z,100128.97
2023-03-26T18:38:57.684Z,100130.34
2023-03-26T18:41:28.543Z,100136.19
2023-03-26T18:43:57.475Z,100155.75
2023-03-26T18:46:25.784Z,100150.53
2023-03-26T18:48:55.625Z,100150.94
2023-03-26T18:51:27.502Z,100168.00
2023-03-26T18:53:57.211Z,100171.34
2023-03-26T18:56:33.657Z,100165.66
2023-03-26T18:59:03.144Z,100171.63
2023-03-26T19:01:32.128Z,100173.94
2023-03-26T19:04:02.226Z,100188.38
2023-03-26T19:06:35.703Z,100178.31
2023-03-26T19:09:13.495Z,100183.03
2023-03-26T19:11:50.059Z,100191.53
2023-03-26T19:14:20.150Z,100189.69
2023-03-26T19:16:50.726Z,100199.59
2023-03-26T19:19:23.026Z,100209.16
2023-03-26T19:21:52.439Z,100201.63
2023-03-26T19:24:21.105Z,100206.03
2023-03-26T19:26:49.455Z,100214.59
2023-03-26T19:29:20.274Z,100202.25
2023-03-26T19:31:52.073Z,100217.47
2023-03-26T19:34:26.238Z,100218.34
2023-03-26T19:36:59.444Z,100219.66
2023-03-26T19:42:27.591Z,100243.56
2023-03-26T19:45:16.348Z,100243.16
2023-03-26T19:47:52.176Z,100233.81
2023-03-26T19:50:25.573Z,100254.53
2023-03-26T19:51:18.069Z,100235.22
2023-03-26T19:53:16.884Z,100257.94
2023-03-26T19:55:54.286Z,100237.88
2023-03-26T19:58:22.098Z,100254.94
2023-03-26T20:00:49.952Z,100245.50
2023-03-26T20:03:20.088Z,100246.63
2023-03-26T20:05:47.906Z,100250.16
2023-03-26T20:08:17.354Z,100266.69
2023-03-26T20:10:45.012Z,100258.78
2023-03-26T20:13:17.282Z,100267.16
2023-03-26T20:15:49.164Z,100271.66
2023-03-26T20:18:33.966Z,100277.19
2023-03-26T20:21:01.710Z,100297.41
2023-03-26T20:23:30.734Z,100287.53
2023-03-26T20:25:58.682Z,100304.47
2023-03-26T20:28:26.363Z,100290.41
2023-03-26T20:30:54.671Z,100292.94
2023-03-26T20:33:26.664Z,100303.28
2023-03-26T20:35:55.332Z,100306.69
2023-03-26T20:38:36.623Z,100318.28
2023-03-26T20:41:11.200Z,100320.56
2023-03-26T20:43:38.922Z,100302.75
2023-03-26T20:46:07.273Z,100338.38
2023-03-26T20:48:35.441Z,100345.53
2023-03-26T20:51:03.450Z,100339.78
2023-03-26T20:53:31.502Z,100353.41
2023-03-26T20:55:59.989Z,100341.53
2023-03-26T20:58:30.714Z,100344.13
2023-03-26T21:01:01.359Z,100348.50
2023-03-26T21:03:29.278Z,100345.19
2023-03-26T21:06:00.865Z,100368.69
2023-03-26T21:08:35.070Z,100372.66
2023-03-26T21:11:03.817Z,100383.94
2023-03-26T21:13:38.339Z,100389.25
2023-03-26T21:16:08.190Z,100381.28
2023-03-26T21:18:36.835Z,100375.72
2023-03-26T21:21:21.138Z,100385.00
2023-03-26T21:23:57.831Z,100389.56
2023-03-26T21:26:29.880Z,100397.44
2023-03-26T21:28:59.612Z,100403.84
2023-03-26T21:31:30.831Z,100385.97
2023-03-26T21:33:59.082Z,100416.13
2023-03-26T21:36:28.095Z,100396.56
2023-03-26T21:38:56.441Z,100410.25
2023-03-26T21:41:35.797Z,100417.72
2023-03-26T21:44:05.323Z,100407.34
2023-03-26T21:46:33.772Z,100411.72
2023-03-26T21:49:02.064Z,100421.09
2023-03-26T21:51:30.304Z,100409.91
2023-03-26T21:53:58.481Z,100428.34
2023-03-26T21:56:38.511Z,100419.69
2023-03-26T21:59:11.824Z,100441.31
2023-03-26T22:01:44.787Z,100448.72
2023-03-26T22:04:15.376Z,100434.56
2023-03-26T22:06:46.734Z,100442.41
2023-03-26T22:09:18.432Z,100456.34
2023-03-26T22:11:48.259Z,100450.00
2023-03-26T22:14:17.636Z,100457.88
2023-03-26T22:16:45.340Z,100460.47
2023-03-26T22:19:13.758Z,100464.16
2023-03-26T22:21:41.456Z,100475.13
2023-03-26T22:24:09.306Z,100466.91
2023-03-26T22:26:37.579Z,100465.66
2023-03-26T22:29:05.983Z,100481.09
2023-03-26T22:31:36.109Z,100476.41
2023-03-26T22:34:03.921Z,100480.28
2023-03-26T22:36:32.127Z,100497.72
2023-03-26T22:38:59.880Z,100483.03
2023-03-26T22:41:29.556Z,100499.06
2023-03-26T22:43:59.628Z,100499.84
2023-03-26T22:46:31.087Z,100496.78
2023-03-26T22:49:00.495Z,100497.09
2023-03-26T22:51:29.496Z,100507.03
2023-03-26T22:53:57.417Z,100515.06
2023-03-26T22:56:25.111Z,100515.22
2023-03-26T22:58:52.852Z,100504.06
2023-03-26T23:01:22.821Z,100531.94
2023-03-26T23:03:51.016Z,100539.03
2023-03-26T23:06:21.144Z,100542.47
2023-03-26T23:08:48.831Z,100539.47
2023-03-26T23:11:18.201Z,100546.69
2023-03-26T23:13:47.455Z,100548.38
2023-03-26T23:16:16.930Z,100541.94
2023-03-26T23:18:44.982Z,100568.31
2023-03-26T23:21:15.045Z,100555.50
2023-03-26T23:23:44.480Z,100558.34
2023-03-26T23:26:13.551Z,100565.19
2023-03-26T23:28:41.626Z,100571.34
2023-03-26T23:31:12.239Z,100577.19
2023-03-26T23:33:45.570Z,100573.66
2023-03-26T23:36:17.522Z,100575.38
2023-03-26T23:38:47.872Z,100583.75
2023-03-26T23:41:17.237Z,100584.72
2023-03-26T23:43:53.424Z,100592.09
2023-03-26T23:46:23.634Z,100591.63
2023-03-26T23:48:52.062Z,100615.47
2023-03-26T23:51:20.509Z,100618.63
2023-03-26T23:53:50.116Z,100612.03
2023-03-26T23:56:17.971Z,100608.78
2023-03-26T23:58:45.687Z,100623.47
